Time;durP1;ratioP1;P1;durP2;ratioP2;P2;SDS_P1;SDS_P2;PMS_P1;PMS_P2;Temp;Humidity;BMP_temperature;BMP_pressure;BME280_temperature;BME280_humidity;BME280_pressure;Samples;Min_cycle;Max_cycle;Signal;HPM_P1;HPM_P2
2021/12/28 00:00:16;;;;;;;67.35;35.92;;;;;;;;;;4984382;28;20046;-69
2021/12/28 00:02:45;;;;;;;69.05;36.42;;;6.80;99.90;;;;;;5001978;28;20415;-70
2021/12/28 00:05:12;;;;;;;68.15;35.22;;;;;;;;;;4968336;28;20049;-69
2021/12/28 00:07:38;;;;;;;67.60;36.35;;;;;;;;;;4984148;28;20037;-70
2021/12/28 00:10:06;;;;;;;72.20;36.92;;;6.80;99.90;;;;;;4967004;28;20082;-70
2021/12/28 00:12:34;;;;;;;65.78;34.63;;;;;;;;;;4982264;28;20065;-70
2021/12/28 00:15:05;;;;;;;64.20;33.58;;;6.70;99.90;;;;;;5000867;28;20073;-69
2021/12/28 00:20:16;;;;;;;64.78;33.53;;;;;;;;;;5001278;28;20050;-70
2021/12/28 00:22:42;;;;;;;74.85;37.63;;;;;;;;;;4982018;28;20133;-69
2021/12/28 00:25:10;;;;;;;75.38;38.40;;;;;;;;;;4984913;28;20077;-70
2021/12/28 00:27:36;;;;;;;70.88;35.60;;;;;;;;;;4971098;28;20041;-70
2021/12/28 00:30:03;;;;;;;75.88;39.13;;;7.10;99.90;;;;;;4970485;28;20133;-69
2021/12/28 00:32:29;;;;;;;70.93;38.58;;;;;;;;;;4976731;28;20050;-69
2021/12/28 00:34:55;;;;;;;82.47;39.88;;;7.10;99.90;;;;;;4964337;28;20050;-70
2021/12/28 00:37:21;;;;;;;73.82;37.40;;;;;;;;;;4961918;28;20043;-70
2021/12/28 00:39:49;;;;;;;77.30;39.42;;;;;;;;;;4961831;28;20057;-69
2021/12/28 00:42:15;;;;;;;86.80;41.63;;;;;;;;;;4980447;28;20043;-70
2021/12/28 00:44:41;;;;;;;76.40;38.83;;;;;;;;;;4980562;28;20052;-70
2021/12/28 00:47:07;;;;;;;86.88;41.13;;;7.00;99.90;;;;;;4997674;28;20046;-70
2021/12/28 00:49:33;;;;;;;83.18;40.55;;;;;;;;;;4963910;28;20140;-70
2021/12/28 00:51:59;;;;;;;86.13;41.25;;;7.10;99.90;;;;;;4992087;28;20084;-70
2021/12/28 00:54:25;;;;;;;82.35;40.05;;;7.10;99.90;;;;;;4997608;28;20035;-70
2021/12/28 00:56:51;;;;;;;88.55;42.53;;;;;;;;;;4995801;28;20039;-69
2021/12/28 00:59:17;;;;;;;96.45;43.97;;;;;;;;;;4997319;28;20389;-70
2021/12/28 01:01:43;;;;;;;92.50;42.08;;;;;;;;;;4996423;28;20450;-70
2021/12/28 01:04:08;;;;;;;106.07;46.70;;;7.20;99.90;;;;;;4998047;28;20097;-69
2021/12/28 01:06:34;;;;;;;94.53;42.78;;;7.20;99.90;;;;;;4980891;28;20439;-69
2021/12/28 01:09:00;;;;;;;102.10;45.45;;;7.10;99.90;;;;;;4998922;28;20045;-70
2021/12/28 01:11:25;;;;;;;103.53;44.92;;;7.20;99.90;;;;;;4997952;28;20415;-70
2021/12/28 01:13:51;;;;;;;105.28;45.58;;;;;;;;;;4964402;28;20476;-69
2021/12/28 01:16:18;;;;;;;110.25;45.20;;;;;;;;;;4998156;28;20057;-70
2021/12/28 01:18:44;;;;;;;110.63;44.45;;;;;;;;;;4963907;28;20480;-70
2021/12/28 01:21:10;;;;;;;121.28;47.55;;;7.10;99.90;;;;;;4963250;28;20092;-70
2021/12/28 01:23:36;;;;;;;115.85;46.67;;;7.20;99.90;;;;;;4996625;28;20117;-70
2021/12/28 01:26:03;;;;;;;129.32;49.50;;;7.30;99.90;;;;;;4996948;28;20038;-70
2021/12/28 01:28:29;;;;;;;131.55;48.45;;;7.20;99.90;;;;;;4996240;28;20048;-70
2021/12/28 01:30:54;;;;;;;127.97;47.85;;;7.20;99.90;;;;;;4963869;28;20042;-69
2021/12/28 01:33:20;;;;;;;131.82;47.78;;;7.30;99.90;;;;;;4997296;28;20042;-70
2021/12/28 01:35:46;;;;;;;130.07;49.75;;;;;;;;;;4980166;28;20396;-69
2021/12/28 01:38:12;;;;;;;142.40;49.28;;;;;;;;;;4963894;28;20045;-70
2021/12/28 01:40:42;;;;;;;183.63;55.17;;;7.30;99.90;;;;;;4979187;28;20109;-70
2021/12/28 01:43:12;;;;;;;194.07;56.75;;;7.20;99.90;;;;;;4979251;28;20492;-70
2021/12/28 01:45:38;;;;;;;145.38;49.55;;;;;;;;;;4979395;28;20042;-69
2021/12/28 01:48:05;;;;;;;151.70;51.15;;;7.30;99.90;;;;;;4980202;28;20508;-70
2021/12/28 01:50:31;;;;;;;174.63;53.30;;;;;;;;;;4978882;28;20046;-70
2021/12/28 01:52:57;;;;;;;189.18;54.60;;;7.20;99.90;;;;;;4963903;28;20041;-70
2021/12/28 01:55:23;;;;;;;135.23;48.15;;;7.30;99.90;;;;;;4979582;28;20047;-70
2021/12/28 01:57:48;;;;;;;124.00;46.42;;;7.20;99.90;;;;;;4962880;28;20480;-69
2021/12/28 02:00:15;;;;;;;175.45;53.63;;;7.20;99.90;;;;;;4978496;28;20052;-69
2021/12/28 02:02:41;;;;;;;165.55;51.25;;;;;;;;;;4978879;28;20552;-70
2021/12/28 02:05:07;;;;;;;131.43;46.72;;;;;;;;;;4978242;28;20080;-70
2021/12/28 02:07:33;;;;;;;181.98;54.45;;;;;;;;;;4977840;28;20132;-69
2021/12/28 02:09:59;;;;;;;160.13;52.10;;;;;;;;;;4977939;28;20468;-70
2021/12/28 02:12:29;;;;;;;184.75;52.83;;;7.40;99.90;;;;;;4978475;28;20511;-70
2021/12/28 02:14:54;;;;;;;145.57;46.10;;;7.50;99.90;;;;;;4961995;28;20045;-70
2021/12/28 02:17:20;;;;;;;149.18;49.40;;;7.40;99.90;;;;;;4977611;28;20039;-70
2021/12/28 02:19:46;;;;;;;155.00;49.60;;;;;;;;;;4962739;28;20054;-69
2021/12/28 02:22:12;;;;;;;146.00;48.92;;;7.50;99.90;;;;;;4995903;28;20088;-70
2021/12/28 02:24:38;;;;;;;148.35;49.45;;;;;;;;;;4974804;28;20046;-70
2021/12/28 02:27:04;;;;;;;151.60;48.35;;;7.50;99.90;;;;;;4979311;28;20046;-70
2021/12/28 02:29:30;;;;;;;162.20;49.53;;;;;;;;;;4978024;28;20054;-69
2021/12/28 02:31:55;;;;;;;167.35;49.80;;;7.50;99.90;;;;;;4995534;28;20042;-70
2021/12/28 02:34:25;;;;;;;153.45;48.15;;;7.60;99.90;;;;;;4996052;28;20403;-69
2021/12/28 02:36:51;;;;;;;146.50;48.25;;;7.50;99.90;;;;;;4979115;28;20042;-70
2021/12/28 02:39:18;;;;;;;147.38;49.58;;;7.60;99.90;;;;;;4975654;28;20047;-70
2021/12/28 02:41:44;;;;;;;165.60;52.00;;;7.60;99.90;;;;;;4975160;28;20049;-70
2021/12/28 02:44:10;;;;;;;158.70;50.88;;;;;;;;;;4976615;28;20043;-70
2021/12/28 02:46:36;;;;;;;141.77;48.05;;;;;;;;;;4992569;28;20055;-69
2021/12/28 02:49:03;;;;;;;144.35;46.58;;;;;;;;;;4975205;28;20043;-70
2021/12/28 02:51:29;;;;;;;151.82;49.55;;;;;;;;;;4974823;28;20047;-70
2021/12/28 02:53:55;;;;;;;139.77;46.05;;;;;;;;;;4979960;28;20042;-69
2021/12/28 02:56:21;;;;;;;131.27;45.50;;;7.70;99.90;;;;;;4996010;28;20535;-70
2021/12/28 02:58:52;;;;;;;137.73;46.72;;;7.70;99.90;;;;;;4980249;28;20039;-70
2021/12/28 03:01:25;;;;;;;132.85;43.92;;;7.50;99.90;;;;;;4963742;28;20126;-70
2021/12/28 03:03:58;;;;;;;136.88;46.83;;;7.80;99.90;;;;;;4979193;28;20497;-70
2021/12/28 03:06:24;;;;;;;132.10;44.70;;;7.70;99.90;;;;;;4978329;28;20070;-70
2021/12/28 03:08:55;;;;;;;135.23;46.67;;;7.70;99.90;;;;;;4978519;28;20054;-70
2021/12/28 03:11:24;;;;;;;120.45;44.13;;;7.70;99.90;;;;;;4979147;28;20046;-70
2021/12/28 03:13:52;;;;;;;123.70;43.67;;;7.70;99.90;;;;;;4980423;28;20050;-70
2021/12/28 03:16:19;;;;;;;124.47;41.95;;;7.80;99.90;;;;;;4978518;28;20038;-70
2021/12/28 03:18:45;;;;;;;113.43;42.35;;;7.70;99.90;;;;;;4947329;28;20039;-70
2021/12/28 03:21:12;;;;;;;118.85;41.00;;;7.90;99.90;;;;;;4980830;28;20125;-70
2021/12/28 03:23:39;;;;;;;117.80;40.63;;;7.90;99.90;;;;;;4979866;28;20505;-70
2021/12/28 03:26:06;;;;;;;114.28;42.50;;;7.80;99.90;;;;;;4979615;28;20043;-70
2021/12/28 03:28:35;;;;;;;109.88;39.67;;;8.00;99.90;;;;;;4978532;28;20424;-70
2021/12/28 03:31:03;;;;;;;102.88;37.70;;;7.90;99.90;;;;;;4974103;28;20094;-70
2021/12/28 03:33:34;;;;;;;100.55;36.53;;;7.90;99.90;;;;;;4959534;28;20200;-70
2021/12/28 03:36:01;;;;;;;106.65;38.45;;;7.90;99.90;;;;;;4958398;28;20047;-70
2021/12/28 03:38:27;;;;;;;91.40;35.38;;;;;;;;;;4958286;28;20075;-70
2021/12/28 03:40:53;;;;;;;87.13;35.03;;;8.00;99.90;;;;;;4957962;28;20067;-69
2021/12/28 03:43:19;;;;;;;102.63;39.67;;;;;;;;;;4959237;28;20413;-70
2021/12/28 03:45:45;;;;;;;89.50;35.28;;;;;;;;;;4958602;28;20039;-70
2021/12/28 03:48:11;;;;;;;92.45;33.67;;;;;;;;;;4960149;28;20053;-70
2021/12/28 03:50:38;;;;;;;96.30;34.72;;;7.90;99.90;;;;;;4964248;28;20035;-70
2021/12/28 03:53:05;;;;;;;79.90;34.60;;;7.90;99.90;;;;;;4978454;28;20046;-70
2021/12/28 03:55:31;;;;;;;80.95;31.95;;;;;;;;;;4961931;28;20042;-70
2021/12/28 03:58:00;;;;;;;80.43;33.35;;;8.10;99.90;;;;;;4963138;28;20042;-70
2021/12/28 04:00:26;;;;;;;88.93;31.88;;;;;;;;;;4978427;28;20497;-70
2021/12/28 04:02:52;;;;;;;70.47;32.05;;;;;;;;;;4977771;28;20051;-70
2021/12/28 04:05:18;;;;;;;74.97;29.23;;;;;;;;;;4978951;28;20137;-70
2021/12/28 04:07:45;;;;;;;67.20;30.23;;;7.80;99.90;;;;;;4978616;28;20133;-70
2021/12/28 04:10:12;;;;;;;73.95;31.50;;;;;;;;;;4979115;28;20054;-70
2021/12/28 04:12:39;;;;;;;72.60;32.13;;;8.10;99.90;;;;;;4978772;28;20055;-70
2021/12/28 04:15:07;;;;;;;75.25;31.45;;;8.10;99.90;;;;;;4962748;28;20050;-70
2021/12/28 04:17:37;;;;;;;61.78;28.85;;;8.20;99.90;;;;;;4977191;28;20047;-70
2021/12/28 04:20:09;;;;;;;73.82;31.17;;;8.00;99.90;;;;;;4961573;28;20053;-70
2021/12/28 04:22:35;;;;;;;77.10;29.83;;;;;;;;;;4977245;28;20122;-70
2021/12/28 04:25:01;;;;;;;62.25;28.88;;;7.90;99.90;;;;;;4961092;28;20130;-70
2021/12/28 04:27:27;;;;;;;59.60;28.27;;;8.00;99.90;;;;;;4977451;28;20074;-70
2021/12/28 04:29:53;;;;;;;66.07;28.90;;;;;;;;;;4977430;28;20054;-70
2021/12/28 04:32:19;;;;;;;68.28;27.92;;;;;;;;;;4961880;28;20125;-70
2021/12/28 04:34:44;;;;;;;65.00;28.50;;;8.00;99.90;;;;;;4977686;28;20492;-71
2021/12/28 04:37:10;;;;;;;63.30;26.90;;;8.00;99.90;;;;;;4977497;28;20038;-70
2021/12/28 04:39:36;;;;;;;61.25;26.95;;;8.00;99.90;;;;;;4985041;28;20065;-70
2021/12/28 04:42:02;;;;;;;55.47;26.17;;;8.00;99.90;;;;;;4996418;28;20112;-70
2021/12/28 04:44:27;;;;;;;58.70;25.42;;;7.90;99.90;;;;;;4998599;28;20404;-70
2021/12/28 04:46:53;;;;;;;61.85;26.00;;;7.90;99.90;;;;;;4995782;28;20073;-70
2021/12/28 04:49:22;;;;;;;56.35;25.58;;;8.00;99.90;;;;;;4996601;28;20044;-70
2021/12/28 04:51:48;;;;;;;69.47;29.00;;;7.90;99.90;;;;;;4981343;28;20050;-70
2021/12/28 04:54:14;;;;;;;57.55;26.38;;;7.90;99.90;;;;;;4995605;28;20046;-70
2021/12/28 04:56:41;;;;;;;54.40;26.50;;;8.20;99.90;;;;;;4997341;28;20046;-70
2021/12/28 04:59:07;;;;;;;56.88;26.15;;;8.00;99.90;;;;;;4997882;28;20049;-70
2021/12/28 05:01:33;;;;;;;56.75;27.50;;;8.00;99.90;;;;;;4996009;28;20451;-70
2021/12/28 05:03:59;;;;;;;56.55;27.05;;;7.80;99.90;;;;;;4996621;28;20408;-70
2021/12/28 05:06:25;;;;;;;50.55;26.25;;;;;;;;;;4980163;28;20046;-69
2021/12/28 05:08:51;;;;;;;54.45;25.33;;;;;;;;;;4977810;28;20046;-71
2021/12/28 05:11:17;;;;;;;46.88;24.27;;;7.90;99.90;;;;;;4979471;28;20050;-71
2021/12/28 05:13:44;;;;;;;55.08;25.45;;;7.90;99.90;;;;;;4946642;28;20101;-70
2021/12/28 05:16:14;;;;;;;45.60;23.73;;;;;;;;;;4973897;28;20054;-70
2021/12/28 05:18:40;;;;;;;46.80;24.13;;;;;;;;;;4961308;28;20054;-70
2021/12/28 05:21:06;;;;;;;51.45;22.10;;;;;;;;;;4975310;28;20051;-70
2021/12/28 05:23:31;;;;;;;42.97;22.02;;;7.90;99.90;;;;;;4961044;29;20047;-70
2021/12/28 05:25:57;;;;;;;50.15;23.63;;;;;;;;;;4961311;28;20057;-70
2021/12/28 05:28:25;;;;;;;43.83;21.98;;;;;;;;;;4974236;28;20043;-71
2021/12/28 05:30:51;;;;;;;41.10;22.05;;;;;;;;;;4959086;29;20074;-71
2021/12/28 05:33:17;;;;;;;43.58;22.67;;;7.70;99.90;;;;;;4958450;29;20481;-71
2021/12/28 05:35:42;;;;;;;47.17;23.45;;;7.90;99.90;;;;;;4959319;28;20050;-70
2021/12/28 05:38:08;;;;;;;51.95;24.67;;;7.80;99.90;;;;;;4975608;28;20031;-70
2021/12/28 05:40:33;;;;;;;48.00;24.65;;;7.70;99.90;;;;;;4973564;28;20080;-70
2021/12/28 05:42:59;;;;;;;45.50;21.02;;;7.80;99.90;;;;;;4946740;29;20081;-71
2021/12/28 05:45:26;;;;;;;44.25;22.98;;;7.70;99.90;;;;;;4960302;29;20408;-71
2021/12/28 05:47:52;;;;;;;37.20;16.98;;;7.80;99.90;;;;;;4956493;28;20486;-71
2021/12/28 05:50:18;;;;;;;45.10;21.13;;;7.80;99.90;;;;;;4956463;29;20039;-71
2021/12/28 05:52:43;;;;;;;45.00;20.63;;;7.70;99.90;;;;;;4956456;28;20486;-71
2021/12/28 05:55:09;;;;;;;42.97;20.85;;;7.70;99.90;;;;;;4935063;29;20405;-71
2021/12/28 05:57:35;;;;;;;45.50;21.13;;;7.70;99.90;;;;;;4944558;28;20050;-71
2021/12/28 06:00:02;;;;;;;38.45;20.52;;;7.70;99.90;;;;;;4950296;29;20046;-71
2021/12/28 06:02:28;;;;;;;36.17;17.52;;;;;;;;;;4949267;29;20062;-71
2021/12/28 06:04:54;;;;;;;39.08;17.60;;;7.70;99.90;;;;;;4941855;29;20070;-71
2021/12/28 06:07:21;;;;;;;38.13;18.50;;;;;;;;;;4946304;28;20047;-70
2021/12/28 06:09:47;;;;;;;32.13;16.30;;;7.80;99.90;;;;;;4961985;28;20044;-71
2021/12/28 06:12:12;;;;;;;37.25;17.15;;;7.80;99.90;;;;;;4962725;28;20054;-70
2021/12/28 06:14:38;;;;;;;34.55;16.02;;;7.70;99.90;;;;;;4953302;28;20031;-71
2021/12/28 06:17:04;;;;;;;33.03;16.00;;;7.70;99.90;;;;;;4943763;28;20040;-71
2021/12/28 06:19:29;;;;;;;30.02;15.90;;;7.70;99.90;;;;;;4932846;29;20094;-71
2021/12/28 06:21:55;;;;;;;35.53;15.48;;;;;;;;;;4952091;28;20457;-71
2021/12/28 06:24:21;;;;;;;35.05;16.23;;;7.70;99.90;;;;;;4951863;29;20512;-70
2021/12/28 06:26:46;;;;;;;34.50;15.68;;;7.70;99.90;;;;;;4953858;28;20035;-70
2021/12/28 06:29:15;;;;;;;31.88;15.18;;;7.70;99.90;;;;;;4955484;29;20552;-70
2021/12/28 06:31:40;;;;;;;31.10;16.45;;;7.60;99.90;;;;;;4945377;28;20043;-70
2021/12/28 06:34:07;;;;;;;29.73;14.70;;;7.90;99.90;;;;;;4955168;29;20035;-70
2021/12/28 06:36:33;;;;;;;28.35;14.70;;;7.80;99.90;;;;;;4954058;28;20067;-70
2021/12/28 06:38:59;;;;;;;28.92;13.82;;;7.70;99.90;;;;;;4952229;28;20051;-70
2021/12/28 06:41:24;;;;;;;29.15;13.80;;;7.70;99.90;;;;;;4985595;28;20125;-70
2021/12/28 06:43:50;;;;;;;29.92;14.68;;;7.70;99.90;;;;;;4965020;28;20460;-70
2021/12/28 06:46:16;;;;;;;31.00;14.65;;;7.70;99.90;;;;;;4970912;28;20077;-71
2021/12/28 06:48:42;;;;;;;31.55;13.95;;;;;;;;;;4976619;28;20042;-69
2021/12/28 06:51:07;;;;;;;32.22;13.48;;;7.60;99.90;;;;;;4991864;28;20654;-70
2021/12/28 06:53:34;;;;;;;28.52;12.60;;;7.70;99.90;;;;;;4977603;28;20050;-70
2021/12/28 06:56:00;;;;;;;31.27;12.93;;;;;;;;;;4977577;28;20046;-69
2021/12/28 06:58:26;;;;;;;26.45;12.18;;;7.70;99.90;;;;;;4977372;28;20481;-70
2021/12/28 07:00:52;;;;;;;25.38;11.38;;;;;;;;;;4976707;28;20042;-70
2021/12/28 07:03:18;;;;;;;23.50;12.52;;;;;;;;;;4994102;28;20046;-67
2021/12/28 07:05:44;;;;;;;24.38;12.05;;;;;;;;;;4970410;28;20050;-69
2021/12/28 07:08:10;;;;;;;26.63;11.48;;;;;;;;;;4989558;28;20532;-69
2021/12/28 07:10:36;;;;;;;30.50;11.63;;;;;;;;;;4991876;28;20130;-70
2021/12/28 07:13:01;;;;;;;30.30;13.75;;;7.80;99.90;;;;;;4974764;28;20082;-70
2021/12/28 07:15:27;;;;;;;26.23;11.52;;;7.70;99.90;;;;;;4994266;28;20136;-69
2021/12/28 07:17:53;;;;;;;27.23;11.60;;;;;;;;;;4976973;28;20046;-70
2021/12/28 07:20:19;;;;;;;22.73;11.02;;;7.70;99.90;;;;;;4994694;28;20357;-70
2021/12/28 07:22:45;;;;;;;26.83;10.45;;;7.70;99.90;;;;;;4994754;28;20041;-70
2021/12/28 07:25:11;;;;;;;30.13;11.10;;;;;;;;;;4977445;28;20488;-69
2021/12/28 07:27:38;;;;;;;23.77;10.07;;;7.70;99.90;;;;;;4960101;28;20054;-68
2021/12/28 07:30:07;;;;;;;19.67;9.30;;;8.00;99.90;;;;;;4975892;28;20599;-69
2021/12/28 07:32:33;;;;;;;32.63;11.02;;;;;;;;;;4959917;28;20049;-70
2021/12/28 07:34:58;;;;;;;25.35;9.98;;;7.90;99.90;;;;;;4976573;28;20038;-70
2021/12/28 07:37:24;;;;;;;28.05;10.40;;;7.80;99.90;;;;;;4969956;28;20043;-70
2021/12/28 07:39:50;;;;;;;25.92;9.68;;;;;;;;;;4975029;28;20424;-70
2021/12/28 07:42:20;;;;;;;21.80;9.43;;;;;;;;;;4991373;28;20046;-70
2021/12/28 07:44:46;;;;;;;24.48;9.77;;;8.00;99.90;;;;;;4975395;28;20050;-70
2021/12/28 07:47:12;;;;;;;24.02;10.18;;;;;;;;;;4954393;28;20642;-70
2021/12/28 07:49:38;;;;;;;26.17;10.32;;;;;;;;;;4992818;28;20061;-70
2021/12/28 07:52:04;;;;;;;27.98;10.30;;;8.20;99.90;;;;;;4992899;28;20077;-70
2021/12/28 07:54:30;;;;;;;25.58;9.90;;;8.00;99.90;;;;;;4992063;28;20034;-70
2021/12/28 07:56:56;;;;;;;23.35;10.18;;;;;;;;;;4974803;28;20034;-70
2021/12/28 07:59:22;;;;;;;28.13;9.18;;;;;;;;;;4973729;28;20488;-71
2021/12/28 08:01:48;;;;;;;26.10;10.05;;;;;;;;;;4993323;28;20042;-70
2021/12/28 08:04:14;;;;;;;28.10;10.35;;;8.00;99.90;;;;;;4974580;28;20108;-71
2021/12/28 08:06:40;;;;;;;26.35;9.15;;;7.90;99.90;;;;;;4974612;28;20479;-70
2021/12/28 08:09:06;;;;;;;18.90;8.60;;;;;;;;;;4974688;28;20054;-70
2021/12/28 08:11:31;;;;;;;26.50;9.63;;;;;;;;;;4974187;28;20046;-70
2021/12/28 08:13:57;;;;;;;22.67;9.20;;;;;;;;;;4984701;28;20038;-71
2021/12/28 08:16:24;;;;;;;25.23;9.93;;;8.00;99.90;;;;;;4974747;28;20058;-71
2021/12/28 08:18:50;;;;;;;22.70;8.73;;;8.00;99.90;;;;;;4990490;28;20046;-71
2021/12/28 08:21:16;;;;;;;24.75;10.10;;;8.10;99.90;;;;;;4987392;28;20086;-71
2021/12/28 08:23:41;;;;;;;27.98;9.52;;;8.10;99.90;;;;;;4983523;28;20073;-71
2021/12/28 08:26:07;;;;;;;28.30;10.25;;;;;;;;;;4982368;28;20097;-71
2021/12/28 08:28:33;;;;;;;28.40;11.23;;;;;;;;;;4974681;28;20046;-71
2021/12/28 08:30:59;;;;;;;24.20;10.15;;;;;;;;;;4975101;28;20047;-70
2021/12/28 08:33:25;;;;;;;27.42;9.05;;;;;;;;;;4973232;28;20042;-70
2021/12/28 08:35:51;;;;;;;30.70;10.80;;;;;;;;;;4991685;28;20042;-70
2021/12/28 08:38:18;;;;;;;27.55;9.93;;;;;;;;;;4991114;28;20046;-72
2021/12/28 08:40:44;;;;;;;32.38;10.52;;;7.70;99.90;;;;;;4962993;28;20079;-72
2021/12/28 08:43:11;;;;;;;28.50;10.23;;;7.90;99.90;;;;;;4988194;28;20336;-71
2021/12/28 08:45:38;;;;;;;32.90;11.70;;;7.90;99.90;;;;;;4979451;28;20038;-71
2021/12/28 08:48:05;;;;;;;20.83;9.07;;;8.10;99.90;;;;;;4972376;28;20133;-69
2021/12/28 08:50:31;;;;;;;28.73;10.50;;;;;;;;;;4989901;28;20054;-69
2021/12/28 08:52:57;;;;;;;23.63;10.32;;;7.90;99.90;;;;;;4978393;28;20038;-68
2021/12/28 08:55:23;;;;;;;25.35;9.35;;;8.00;99.90;;;;;;4953279;28;20138;-70
2021/12/28 08:57:50;;;;;;;26.48;9.57;;;;;;;;;;4973330;28;20031;-69
2021/12/28 09:00:19;;;;;;;21.73;9.10;;;8.00;99.90;;;;;;4970318;28;20133;-69
2021/12/28 09:02:45;;;;;;;29.08;9.75;;;;;;;;;;4951175;28;20142;-69
2021/12/28 09:05:11;;;;;;;26.15;9.30;;;;;;;;;;4953642;28;20078;-67
2021/12/28 09:07:37;;;;;;;24.45;9.57;;;;;;;;;;4956579;28;20078;-68
2021/12/28 09:10:04;;;;;;;28.75;9.48;;;;;;;;;;4955058;28;20047;-69
2021/12/28 09:12:30;;;;;;;27.20;10.55;;;;;;;;;;4972270;28;20034;-68
2021/12/28 09:14:56;;;;;;;29.52;11.35;;;;;;;;;;4955474;28;20559;-68
2021/12/28 09:17:22;;;;;;;31.25;10.98;;;8.20;99.90;;;;;;4953717;28;20186;-70
2021/12/28 09:19:48;;;;;;;29.35;11.13;;;;;;;;;;4974921;28;20049;-67
2021/12/28 09:22:14;;;;;;;28.75;11.90;;;;;;;;;;4982641;28;20049;-69
2021/12/28 09:24:40;;;;;;;24.48;10.98;;;;;;;;;;4972559;28;20089;-69
2021/12/28 09:27:06;;;;;;;33.17;12.10;;;8.30;99.90;;;;;;4985113;28;20593;-69
2021/12/28 09:29:32;;;;;;;30.67;11.95;;;8.10;99.90;;;;;;4960357;28;20046;-69
2021/12/28 09:31:58;;;;;;;31.55;12.85;;;8.30;99.90;;;;;;4989867;28;20046;-69
2021/12/28 09:34:25;;;;;;;35.40;13.85;;;8.30;99.90;;;;;;4990933;28;20049;-68
2021/12/28 09:36:51;;;;;;;38.42;13.30;;;;;;;;;;4972946;28;20060;-69
2021/12/28 09:39:22;;;;;;;33.38;14.07;;;;;;;;;;4969715;28;20086;-68
2021/12/28 09:41:51;;;;;;;33.90;13.68;;;8.10;99.90;;;;;;4980398;28;20050;-68
2021/12/28 09:44:17;;;;;;;37.65;14.13;;;;;;;;;;4990633;28;20038;-68
2021/12/28 09:46:43;;;;;;;33.03;14.82;;;8.50;99.90;;;;;;4973027;28;20054;-68
2021/12/28 09:49:09;;;;;;;28.38;12.55;;;;;;;;;;4972764;28;20050;-68
2021/12/28 09:51:35;;;;;;;34.30;14.60;;;;;;;;;;4990495;28;20073;-68
2021/12/28 09:54:00;;;;;;;36.67;15.00;;;8.30;99.90;;;;;;4973172;28;20567;-68
2021/12/28 09:56:26;;;;;;;31.90;14.73;;;;;;;;;;4990633;28;20049;-68
2021/12/28 09:58:52;;;;;;;39.85;15.18;;;8.30;99.90;;;;;;4973038;28;20042;-68
2021/12/28 10:01:20;;;;;;;35.42;15.93;;;;;;;;;;4972494;28;20049;-68
2021/12/28 10:03:46;;;;;;;26.23;16.15;;;;;;;;;;4990691;28;20101;-68
2021/12/28 10:06:16;;;;;;;27.15;14.93;;;;;;;;;;4973112;28;20042;-69
2021/12/28 10:08:43;;;;;;;30.38;15.98;;;;;;;;;;4989163;28;20111;-70
2021/12/28 10:11:09;;;;;;;27.83;13.90;;;;;;;;;;4948246;28;20578;-69
2021/12/28 10:13:35;;;;;;;25.13;15.02;;;;;;;;;;4948895;28;20093;-72
2021/12/28 10:16:01;;;;;;;30.20;15.07;;;;;;;;;;4965936;28;20122;-70
2021/12/28 10:18:27;;;;;;;26.10;14.23;;;8.40;99.90;;;;;;4979589;28;20117;-70
2021/12/28 10:20:56;;;;;;;30.08;14.75;;;8.60;99.90;;;;;;4967697;28;20138;-70
2021/12/28 10:23:30;;;;;;;27.02;15.80;;;8.40;99.90;;;;;;4978637;28;20617;-69
2021/12/28 10:25:59;;;;;;;27.63;15.50;;;8.40;99.90;;;;;;4985129;28;20050;-70
2021/12/28 10:28:31;;;;;;;36.38;15.35;;;8.60;99.90;;;;;;4959094;28;20503;-70
2021/12/28 10:31:00;;;;;;;32.60;15.27;;;;;;;;;;4982578;28;20045;-68
2021/12/28 10:33:27;;;;;;;36.97;15.95;;;8.70;99.90;;;;;;4982980;28;20041;-69
2021/12/28 10:35:59;;;;;;;29.02;15.38;;;8.60;99.90;;;;;;4982128;28;20038;-70
2021/12/28 10:38:29;;;;;;;25.30;14.40;;;;;;;;;;4974460;28;20057;-66
2021/12/28 10:41:10;;;;;;;30.13;14.85;;;8.60;99.90;;;;;;4959737;28;20853;-67
2021/12/28 10:43:39;;;;;;;29.25;16.25;;;8.50;99.90;;;;;;4959166;28;20039;-68
2021/12/28 10:46:06;;;;;;;37.70;17.60;;;8.60;99.90;;;;;;4984425;28;20045;-67
2021/12/28 10:48:37;;;;;;;30.73;17.10;;;8.40;99.90;;;;;;4969840;28;20030;-66
2021/12/28 10:51:09;;;;;;;35.95;16.52;;;8.60;99.90;;;;;;4973051;28;20042;-67
2021/12/28 10:54:06;;;;;;;31.17;16.13;;;8.70;99.90;;;;;;4970952;28;20146;-67
2021/12/28 10:56:34;;;;;;;25.85;15.32;;;;;;;;;;4986614;28;20051;-69
2021/12/28 10:59:00;;;;;;;25.35;14.75;;;8.70;99.90;;;;;;4957463;28;20042;-68
2021/12/28 11:01:32;;;;;;;30.00;16.23;;;8.60;99.90;;;;;;4959395;28;20046;-68
2021/12/28 11:04:00;;;;;;;22.27;12.43;;;8.60;99.90;;;;;;4983644;28;20125;-66
2021/12/28 11:06:31;;;;;;;23.27;14.85;;;8.70;99.90;;;;;;4975042;28;20070;-66
2021/12/28 11:09:28;;;;;;;28.58;13.30;;;8.70;99.90;;;;;;4978056;28;20045;-65
2021/12/28 11:11:56;;;;;;;22.27;13.63;;;8.60;99.90;;;;;;4961984;28;20061;-67
2021/12/28 11:14:26;;;;;;;21.85;12.23;;;8.70;99.90;;;;;;4961408;28;20042;-65
2021/12/28 11:17:04;;;;;;;23.52;12.90;;;8.80;99.90;;;;;;4982366;28;20049;-67
2021/12/28 11:19:33;;;;;;;24.23;13.40;;;8.80;99.90;;;;;;4962939;28;20555;-68
2021/12/28 11:22:02;;;;;;;21.40;13.93;;;8.60;99.90;;;;;;4958420;28;20043;-65
2021/12/28 11:24:30;;;;;;;22.05;13.50;;;8.70;99.90;;;;;;4976624;28;20097;-67
2021/12/28 11:26:56;;;;;;;16.42;10.98;;;8.90;99.90;;;;;;4958669;28;20393;-68
2021/12/28 11:29:28;;;;;;;17.98;11.98;;;8.80;99.90;;;;;;4988894;28;20049;-67
2021/12/28 11:32:01;;;;;;;21.95;12.00;;;8.90;99.90;;;;;;4975810;28;20125;-67
2021/12/28 11:34:29;;;;;;;19.80;11.63;;;8.90;99.90;;;;;;4977014;28;20555;-67
2021/12/28 11:37:01;;;;;;;15.95;10.52;;;9.00;99.90;;;;;;4993217;28;20084;-67
2021/12/28 11:39:32;;;;;;;14.90;10.65;;;9.00;99.90;;;;;;4993975;28;20062;-67
2021/12/28 11:41:59;;;;;;;15.63;10.57;;;8.80;99.90;;;;;;4976342;28;20392;-68
2021/12/28 11:44:27;;;;;;;16.00;11.02;;;9.00;99.90;;;;;;4991958;28;20041;-67
2021/12/28 11:46:55;;;;;;;19.27;12.45;;;9.00;99.90;;;;;;4993072;28;20042;-68
2021/12/28 11:49:25;;;;;;;15.82;11.50;;;8.90;99.90;;;;;;4975683;28;20125;-67
2021/12/28 11:51:52;;;;;;;18.75;11.27;;;;;;;;;;4993302;28;20055;-67
2021/12/28 11:54:23;;;;;;;18.10;10.35;;;9.00;99.90;;;;;;4993444;28;20411;-68
2021/12/28 11:56:57;;;;;;;16.45;10.80;;;9.00;99.90;;;;;;4965845;28;20063;-67
2021/12/28 11:59:26;;;;;;;16.53;10.90;;;9.10;99.90;;;;;;4956069;28;20043;-67
2021/12/28 12:01:52;;;;;;;15.50;10.50;;;;;;;;;;4992444;28;20057;-66
2021/12/28 12:04:29;;;;;;;18.92;10.65;;;8.80;99.90;;;;;;4993055;28;20046;-66
2021/12/28 12:07:19;;;;;;;18.88;10.30;;;8.80;99.90;;;;;;4972133;28;20039;-68
2021/12/28 12:09:51;;;;;;;14.60;9.93;;;9.00;99.90;;;;;;4974584;28;20129;-65
2021/12/28 12:12:21;;;;;;;18.15;9.35;;;9.10;99.90;;;;;;4972984;28;20101;-67
2021/12/28 12:14:50;;;;;;;16.85;10.15;;;9.10;99.90;;;;;;4955621;28;20069;-66
2021/12/28 12:17:28;;;;;;;15.30;9.57;;;9.20;99.90;;;;;;4955285;28;20043;-68
2021/12/28 12:19:56;;;;;;;12.65;10.25;;;9.00;99.90;;;;;;4970857;28;20057;-67
2021/12/28 12:22:30;;;;;;;15.57;9.40;;;9.10;99.90;;;;;;4976473;28;20085;-68
2021/12/28 12:25:00;;;;;;;14.57;9.87;;;9.40;99.90;;;;;;4956109;28;20047;-68
2021/12/28 12:27:47;;;;;;;15.82;9.27;;;9.20;99.90;;;;;;4972459;28;20060;-69
2021/12/28 12:30:22;;;;;;;16.52;10.20;;;9.20;99.90;;;;;;4972576;28;20050;-68
2021/12/28 12:33:06;;;;;;;13.40;9.48;;;9.10;99.90;;;;;;4958041;28;20042;-67
2021/12/28 12:35:42;;;;;;;15.50;9.40;;;9.20;99.90;;;;;;4972434;28;20060;-67
2021/12/28 12:38:17;;;;;;;14.73;10.55;;;9.30;99.90;;;;;;4971413;28;20046;-67
2021/12/28 12:41:01;;;;;;;13.23;8.98;;;9.20;99.90;;;;;;4991806;28;20093;-68
2021/12/28 12:43:36;;;;;;;13.65;9.35;;;9.10;99.90;;;;;;4992073;28;20173;-67
2021/12/28 12:46:23;;;;;;;12.23;9.07;;;9.20;99.90;;;;;;4974537;28;20052;-69
2021/12/28 12:48:52;;;;;;;11.98;9.32;;;9.30;99.90;;;;;;4988978;28;20447;-69
2021/12/28 12:51:20;;;;;;;14.60;8.98;;;9.30;99.90;;;;;;4974074;28;20049;-68
2021/12/28 12:54:01;;;;;;;13.85;8.80;;;9.30;99.90;;;;;;4973825;28;20049;-67
2021/12/28 12:56:27;;;;;;;12.05;8.90;;;9.40;99.90;;;;;;4974167;28;20480;-68
2021/12/28 12:58:55;;;;;;;14.00;9.35;;;9.40;99.90;;;;;;4974576;28;20046;-68
2021/12/28 13:01:27;;;;;;;11.88;8.52;;;9.50;99.90;;;;;;4991691;28;20046;-68
2021/12/28 13:03:58;;;;;;;12.13;7.85;;;9.50;99.90;;;;;;4974037;28;20142;-67
2021/12/28 13:06:41;;;;;;;10.32;7.78;;;9.50;99.90;;;;;;4974104;28;20088;-67
2021/12/28 13:09:10;;;;;;;12.90;7.72;;;9.60;99.90;;;;;;4973734;28;20136;-68
2021/12/28 13:11:36;;;;;;;9.52;7.85;;;9.60;99.90;;;;;;4990589;28;20515;-67
2021/12/28 13:14:03;;;;;;;11.65;7.78;;;;;;;;;;4968165;28;20047;-68